Time;durP1;ratioP1;P1;durP2;ratioP2;P2;SDS_P1;SDS_P2;PMS_P1;PMS_P2;Temp;Humidity;BMP_temperature;BMP_pressure;BME280_temperature;BME280_humidity;BME280_pressure;Samples;Min_cycle;Max_cycle;Signal;HPM_P1;HPM_P2
2021/06/10 00:00:39;;;;;;;6.00;4.43;;;15.50;99.90;;;;;;5043106;28;20025;-73
2021/06/10 00:03:05;;;;;;;8.93;4.80;;;15.50;99.90;;;;;;5045725;28;20044;-75
2021/06/10 00:05:31;;;;;;;6.97;4.97;;;15.40;99.90;;;;;;5045952;28;20041;-74
2021/06/10 00:07:57;;;;;;;11.23;4.40;;;15.30;99.90;;;;;;5043998;28;20052;-75
2021/06/10 00:10:25;;;;;;;9.33;4.50;;;15.30;99.90;;;;;;5055890;28;20447;-75
2021/06/10 00:12:52;;;;;;;8.10;4.90;;;15.30;99.90;;;;;;5059172;28;20431;-74
2021/06/10 00:15:22;;;;;;;;;;;15.20;99.90;;;;;;5047673;28;20024;-76
2021/06/10 00:17:47;;;;;;;6.38;4.30;;;15.20;99.90;;;;;;5054043;28;19916;-74
2021/06/10 00:20:16;;;;;;;7.43;5.13;;;15.20;99.90;;;;;;5057350;28;20026;-76
2021/06/10 00:22:42;;;;;;;7.07;4.78;;;15.20;99.90;;;;;;5061009;28;20026;-76
2021/06/10 00:25:09;;;;;;;6.53;5.32;;;15.20;99.90;;;;;;5053778;28;20032;-77
2021/06/10 00:27:36;;;;;;;;;;;15.10;99.90;;;;;;5051305;28;20171;-76
2021/06/10 00:30:10;;;;;;;8.27;4.85;;;15.10;99.90;;;;;;5045031;28;20046;-75
2021/06/10 00:32:36;;;;;;;9.18;4.40;;;15.10;99.90;;;;;;5054078;28;20043;-74
2021/06/10 00:35:03;;;;;;;7.53;5.10;;;15.10;99.90;;;;;;5055358;28;20582;-75
2021/06/10 00:37:29;;;;;;;6.35;4.65;;;15.10;99.90;;;;;;5054183;28;20059;-74
2021/06/10 00:39:54;;;;;;;7.67;5.27;;;15.10;99.90;;;;;;5050289;28;20028;-77
2021/06/10 00:42:21;;;;;;;6.90;5.03;;;15.00;99.90;;;;;;5036801;28;20057;-76
2021/06/10 00:44:47;;;;;;;5.00;4.22;;;14.90;99.90;;;;;;5051360;28;20032;-76
2021/06/10 00:47:13;;;;;;;7.57;5.10;;;15.00;99.90;;;;;;5053038;28;20086;-76
2021/06/10 00:49:39;;;;;;;6.53;4.10;;;14.90;99.90;;;;;;5060614;28;20022;-75
2021/06/10 00:52:05;;;;;;;5.93;4.53;;;14.90;99.90;;;;;;5054268;28;20021;-76
2021/06/10 00:54:30;;;;;;;7.53;3.80;;;14.80;99.90;;;;;;5053859;28;20060;-74
2021/06/10 00:56:56;;;;;;;5.00;3.70;;;14.80;99.90;;;;;;5050902;28;20065;-76
2021/06/10 00:59:22;;;;;;;5.53;3.97;;;14.70;99.90;;;;;;5066494;28;20116;-76
2021/06/10 01:01:48;;;;;;;5.67;3.83;;;14.70;99.90;;;;;;5055789;28;20033;-75
2021/06/10 01:04:14;;;;;;;5.93;4.07;;;14.60;99.90;;;;;;5052604;28;20029;-75
2021/06/10 01:06:58;;;;;;;8.60;4.67;;;14.50;99.90;;;;;;5055635;28;20377;-76
2021/06/10 01:09:46;;;;;;;7.85;4.18;;;14.50;99.90;;;;;;5046080;28;20025;-75
2021/06/10 01:12:15;;;;;;;7.35;4.63;;;14.50;99.90;;;;;;5049392;28;20022;-74
2021/06/10 01:14:41;;;;;;;8.10;5.18;;;14.50;99.90;;;;;;5041921;28;20061;-75
2021/06/10 01:17:08;;;;;;;7.73;4.90;;;14.50;99.90;;;;;;5050866;28;20534;-75
2021/06/10 01:19:57;;;;;;;7.10;4.50;;;14.50;99.90;;;;;;5043087;28;20044;-76
2021/06/10 01:22:47;;;;;;;9.65;4.88;;;14.50;99.90;;;;;;5045029;28;20028;-75
2021/06/10 01:25:38;;;;;;;9.63;5.07;;;14.60;99.90;;;;;;5044020;28;20459;-76
2021/06/10 01:28:10;;;;;;;7.68;4.53;;;14.60;99.90;;;;;;5050517;28;20033;-76
2021/06/10 01:30:43;;;;;;;7.55;4.32;;;14.60;99.90;;;;;;5038984;28;20567;-77
2021/06/10 01:33:13;;;;;;;4.97;4.00;;;14.50;99.90;;;;;;5052773;28;20032;-76
2021/06/10 01:35:46;;;;;;;6.93;4.93;;;14.50;99.90;;;;;;5045717;28;20087;-76
2021/06/10 01:38:13;;;;;;;5.53;3.95;;;14.40;99.90;;;;;;5038251;28;20424;-77
2021/06/10 01:40:40;;;;;;;6.07;4.22;;;14.40;99.90;;;;;;5040620;28;20399;-75
2021/06/10 01:43:07;;;;;;;6.88;4.43;;;14.40;99.90;;;;;;5053926;28;20444;-75
2021/06/10 01:45:34;;;;;;;6.40;4.13;;;14.50;99.90;;;;;;5059578;28;20043;-76
2021/06/10 01:48:00;;;;;;;;;;;14.40;99.90;;;;;;5054756;28;20021;-76
2021/06/10 01:50:26;;;;;;;6.30;4.60;;;14.40;99.90;;;;;;5048190;28;20343;-76
2021/06/10 01:52:55;;;;;;;7.55;4.32;;;14.30;99.90;;;;;;5048509;28;20029;-75
2021/06/10 01:55:24;;;;;;;6.95;4.80;;;14.30;99.90;;;;;;5053198;28;20126;-75
2021/06/10 01:57:51;;;;;;;7.65;5.07;;;14.30;99.90;;;;;;5062796;28;20078;-75
2021/06/10 02:00:18;;;;;;;7.28;5.00;;;14.30;99.90;;;;;;5052602;28;20036;-76
2021/06/10 02:02:44;;;;;;;;;;;14.30;99.90;;;;;;5045954;28;20025;-75
2021/06/10 02:05:11;;;;;;;7.65;5.25;;;14.30;99.90;;;;;;5053136;28;20007;-75
2021/06/10 02:07:39;;;;;;;6.65;4.82;;;14.30;99.90;;;;;;5051983;28;20108;-75
2021/06/10 02:10:08;;;;;;;7.57;5.32;;;14.30;99.90;;;;;;5064371;28;20021;-76
2021/06/10 02:12:34;;;;;;;9.27;4.88;;;14.30;99.90;;;;;;5065429;28;20109;-75
2021/06/10 02:15:07;;;;;;;6.80;4.95;;;14.20;99.90;;;;;;5044690;28;20032;-76
2021/06/10 02:17:33;;;;;;;6.82;4.30;;;14.20;99.90;;;;;;5047989;28;20319;-75
2021/06/10 02:19:59;;;;;;;5.80;4.20;;;14.20;99.90;;;;;;5047929;28;20033;-74
2021/06/10 02:22:25;;;;;;;7.90;5.17;;;14.10;99.90;;;;;;5053225;28;20338;-75
2021/06/10 02:24:52;;;;;;;6.33;4.13;;;14.00;99.90;;;;;;5050233;28;20037;-74
2021/06/10 02:27:18;;;;;;;6.82;4.00;;;13.90;99.90;;;;;;5053525;28;20017;-75
2021/06/10 02:29:44;;;;;;;6.07;4.40;;;13.90;99.90;;;;;;5051851;28;20039;-75
2021/06/10 02:32:10;;;;;;;7.35;4.35;;;13.80;99.90;;;;;;5047895;28;20074;-75
2021/06/10 02:34:37;;;;;;;7.90;4.95;;;13.70;99.90;;;;;;5042652;28;20329;-75
2021/06/10 02:37:05;;;;;;;6.90;5.10;;;13.70;99.90;;;;;;5042908;28;20032;-76
2021/06/10 02:39:31;;;;;;;8.68;5.50;;;13.70;99.90;;;;;;5048797;28;20053;-74
2021/06/10 02:41:58;;;;;;;9.50;5.97;;;13.70;99.90;;;;;;5040420;28;20050;-75
2021/06/10 02:44:28;;;;;;;9.25;5.65;;;13.70;99.90;;;;;;5050477;28;20332;-75
2021/06/10 02:46:55;;;;;;;9.35;5.22;;;13.80;99.90;;;;;;5050081;28;20037;-76
2021/06/10 02:49:23;;;;;;;7.97;5.70;;;13.80;99.90;;;;;;5053797;28;20489;-77
2021/06/10 02:51:51;;;;;;;9.35;5.95;;;13.90;99.90;;;;;;5043395;28;20024;-77
2021/06/10 02:54:20;;;;;;;9.15;5.50;;;13.90;99.90;;;;;;5046731;28;20021;-76
2021/06/10 02:56:47;;;;;;;9.60;5.70;;;13.90;99.90;;;;;;5061584;28;20036;-76
2021/06/10 02:59:14;;;;;;;;;;;13.90;99.90;;;;;;5060613;28;20026;-76
2021/06/10 03:01:43;;;;;;;7.38;4.78;;;13.90;99.90;;;;;;5046597;28;19909;-76
2021/06/10 03:04:10;;;;;;;9.77;6.10;;;13.80;99.90;;;;;;5059044;28;20114;-76
2021/06/10 03:06:37;;;;;;;9.38;5.47;;;13.80;99.90;;;;;;5052982;28;20171;-76
2021/06/10 03:09:03;;;;;;;11.50;6.55;;;13.70;99.90;;;;;;5055513;28;20409;-76
2021/06/10 03:11:30;;;;;;;8.82;5.72;;;13.70;99.90;;;;;;5076043;28;20029;-76
2021/06/10 03:13:56;;;;;;;;;;;13.60;99.90;;;;;;5063330;28;20033;-78
2021/06/10 03:16:23;;;;;;;8.45;5.40;;;13.60;99.90;;;;;;5055961;28;19932;-76
2021/06/10 03:18:50;;;;;;;9.18;5.97;;;13.50;99.90;;;;;;5054987;28;20040;-76
2021/06/10 03:21:17;;;;;;;8.38;5.75;;;13.50;99.90;;;;;;5058177;28;20036;-76
2021/06/10 03:23:43;;;;;;;9.85;6.22;;;13.50;99.90;;;;;;5064767;28;20024;-77
2021/06/10 03:26:09;;;;;;;9.07;6.33;;;13.60;99.90;;;;;;5054383;28;20033;-77
2021/06/10 03:28:37;;;;;;;12.23;7.13;;;13.60;99.90;;;;;;5056607;28;20495;-76
2021/06/10 03:31:03;;;;;;;11.63;6.85;;;13.60;99.90;;;;;;5053803;28;20493;-76
2021/06/10 03:33:29;;;;;;;;;;;13.60;99.90;;;;;;5051185;28;20098;-76
2021/06/10 03:35:55;;;;;;;11.43;7.10;;;13.60;99.90;;;;;;5070679;28;20258;-75
2021/06/10 03:38:23;;;;;;;13.63;6.63;;;13.60;99.90;;;;;;5055693;28;20032;-77
2021/06/10 03:40:49;;;;;;;11.50;7.03;;;13.60;99.90;;;;;;5051173;28;20078;-77
2021/06/10 03:43:17;;;;;;;8.77;5.80;;;13.60;99.90;;;;;;5055600;28;20741;-77
2021/06/10 03:45:42;;;;;;;11.70;6.47;;;13.60;99.90;;;;;;5053940;28;20037;-76
2021/06/10 03:48:12;;;;;;;9.93;6.23;;;13.70;99.90;;;;;;5053576;28;20027;-76
2021/06/10 03:50:38;;;;;;;10.05;6.72;;;13.80;99.90;;;;;;5053621;28;20335;-76
2021/06/10 03:53:05;;;;;;;10.73;6.87;;;13.80;99.90;;;;;;5050429;28;20021;-77
2021/06/10 03:55:32;;;;;;;11.48;6.35;;;13.90;99.90;;;;;;5053593;28;20697;-75
2021/06/10 03:57:58;;;;;;;11.85;7.25;;;13.90;99.90;;;;;;5055220;28;20055;-76
2021/06/10 04:00:24;;;;;;;14.17;7.07;;;13.90;99.90;;;;;;5053837;28;20032;-76
2021/06/10 04:02:50;;;;;;;11.67;6.63;;;13.90;99.90;;;;;;5053423;28;20033;-76
2021/06/10 04:05:16;;;;;;;11.43;7.38;;;14.00;99.90;;;;;;5052903;28;20431;-76
2021/06/10 04:07:41;;;;;;;12.93;8.00;;;14.10;99.90;;;;;;5052974;28;20029;-76
2021/06/10 04:10:07;;;;;;;10.27;6.77;;;14.20;99.90;;;;;;5054240;28;20460;-76
2021/06/10 04:12:33;;;;;;;12.32;6.50;;;14.20;99.90;;;;;;5054777;28;20158;-76
2021/06/10 04:14:59;;;;;;;12.40;7.83;;;14.30;99.90;;;;;;5052406;28;20120;-76
2021/06/10 04:17:25;;;;;;;13.83;6.80;;;14.30;99.90;;;;;;5055357;28;20048;-76
2021/06/10 04:19:51;;;;;;;11.33;7.57;;;14.30;99.90;;;;;;5055027;28;20040;-75
2021/06/10 04:22:17;;;;;;;12.13;7.35;;;14.20;99.90;;;;;;5049496;28;20321;-77
2021/06/10 04:24:43;;;;;;;12.67;7.07;;;14.20;99.90;;;;;;5053705;28;20112;-76
2021/06/10 04:27:09;;;;;;;13.53;8.20;;;14.20;99.90;;;;;;5050057;28;20047;-77
2021/06/10 04:29:35;;;;;;;13.07;8.05;;;14.30;99.90;;;;;;5054318;28;20068;-77
2021/06/10 04:32:01;;;;;;;12.03;7.63;;;14.50;99.90;;;;;;5059941;28;20495;-76
2021/06/10 04:34:27;;;;;;;11.67;7.30;;;14.70;99.90;;;;;;5051008;28;20021;-75
2021/06/10 04:36:53;;;;;;;13.20;7.93;;;14.80;99.90;;;;;;5054870;28;20086;-77
2021/06/10 04:39:19;;;;;;;13.03;6.97;;;14.90;99.90;;;;;;5053974;28;20060;-78
2021/06/10 04:41:44;;;;;;;13.70;7.90;;;15.00;99.90;;;;;;5047411;28;20053;-77
2021/06/10 04:44:10;;;;;;;14.80;7.63;;;15.00;99.90;;;;;;5049458;28;20370;-77
2021/06/10 04:46:36;;;;;;;16.10;8.77;;;15.10;99.90;;;;;;5055268;28;20035;-78
2021/06/10 04:49:03;;;;;;;16.70;9.50;;;15.20;99.90;;;;;;5048909;28;20661;-76
2021/06/10 04:51:29;;;;;;;16.15;8.73;;;15.30;99.90;;;;;;5035524;28;20024;-78
2021/06/10 04:53:55;;;;;;;15.47;9.50;;;15.40;99.90;;;;;;5045262;28;20134;-78
2021/06/10 04:58:46;;;;;;;17.50;9.63;;;15.60;99.90;;;;;;5055687;28;20281;-78
2021/06/10 05:01:12;;;;;;;17.30;8.63;;;15.70;99.90;;;;;;5054620;28;20029;-75
2021/06/10 05:03:38;;;;;;;16.13;9.50;;;15.80;99.90;;;;;;5067873;28;20055;-79
2021/06/10 05:06:04;;;;;;;15.53;9.10;;;15.90;99.90;;;;;;5055957;28;20102;-77
2021/06/10 05:08:30;;;;;;;15.70;9.73;;;15.90;99.90;;;;;;5051987;28;20033;-77
2021/06/10 05:10:55;;;;;;;15.23;9.03;;;16.00;99.90;;;;;;5054679;28;20028;-78
2021/06/10 05:13:21;;;;;;;14.67;8.67;;;16.20;99.90;;;;;;5052021;28;20029;-77
2021/06/10 05:15:47;;;;;;;16.77;8.90;;;16.30;99.90;;;;;;5053116;28;20312;-77
2021/06/10 05:18:13;;;;;;;14.67;8.77;;;16.50;99.90;;;;;;5046555;28;20033;-77
2021/06/10 05:20:39;;;;;;;13.40;8.57;;;16.60;99.90;;;;;;5054810;28;20305;-78
2021/06/10 05:23:04;;;;;;;14.73;9.33;;;16.60;99.90;;;;;;5055669;28;20406;-77
2021/06/10 05:25:30;;;;;;;14.80;8.47;;;16.70;99.90;;;;;;5051613;28;20025;-79
2021/06/10 05:27:56;;;;;;;14.33;8.50;;;16.70;99.90;;;;;;5052068;28;20049;-78
2021/06/10 05:30:22;;;;;;;12.83;8.10;;;16.80;99.90;;;;;;5050736;28;20419;-78
2021/06/10 05:32:47;;;;;;;17.60;7.83;;;16.80;99.90;;;;;;5051127;28;20293;-79
2021/06/10 05:35:13;;;;;;;13.53;7.47;;;16.90;99.90;;;;;;5039752;28;20730;-78
2021/06/10 05:37:39;;;;;;;15.80;8.37;;;16.90;99.90;;;;;;5049963;28;21221;-79
2021/06/10 05:40:06;;;;;;;11.53;7.77;;;17.00;99.90;;;;;;5047297;28;20048;-78
2021/06/10 05:42:32;;;;;;;11.68;7.22;;;17.00;99.90;;;;;;5044501;28;20056;-77
2021/06/10 05:44:58;;;;;;;11.63;7.43;;;17.00;99.90;;;;;;5046815;28;20031;-77
2021/06/10 05:47:23;;;;;;;10.13;7.00;;;17.10;99.90;;;;;;5051286;28;20032;-78
2021/06/10 05:49:49;;;;;;;11.90;6.33;;;17.10;99.90;;;;;;5055233;28;20435;-79
2021/06/10 05:52:15;;;;;;;11.03;5.73;;;17.10;99.90;;;;;;5046533;28;20071;-78
2021/06/10 05:54:41;;;;;;;10.53;6.17;;;17.10;99.90;;;;;;5044918;28;20026;-76
2021/06/10 05:57:08;;;;;;;11.70;6.53;;;17.20;99.90;;;;;;5049629;28;20408;-79
2021/06/10 05:59:34;;;;;;;10.77;6.60;;;17.20;99.90;;;;;;5050684;28;20013;-78
2021/06/10 06:02:00;;;;;;;9.65;5.60;;;17.20;99.90;;;;;;5049403;28;20024;-78
2021/06/10 06:04:25;;;;;;;11.60;6.57;;;17.30;99.90;;;;;;5050354;28;20033;-79
2021/06/10 06:06:51;;;;;;;13.40;6.20;;;17.40;99.90;;;;;;5051453;28;20032;-75
2021/06/10 06:09:17;;;;;;;7.17;4.83;;;17.40;99.90;;;;;;5053812;28;20023;-81
2021/06/10 06:11:43;;;;;;;7.53;5.30;;;17.40;99.90;;;;;;5049869;28;20315;-78
2021/06/10 06:14:10;;;;;;;10.73;4.90;;;17.40;99.90;;;;;;5059489;28;20433;-79
2021/06/10 06:16:39;;;;;;;6.90;5.10;;;17.50;99.90;;;;;;5049425;28;20037;-79
2021/06/10 06:19:06;;;;;;;10.70;5.32;;;17.50;99.90;;;;;;5051134;28;20029;-78
2021/06/10 06:21:33;;;;;;;9.10;5.22;;;17.50;99.90;;;;;;5052286;28;20034;-75
2021/06/10 06:23:59;;;;;;;9.73;5.30;;;17.60;99.90;;;;;;5051047;28;20071;-79
2021/06/10 06:26:25;;;;;;;10.68;5.60;;;17.70;99.90;;;;;;5053176;28;20028;-79
2021/06/10 06:28:53;;;;;;;8.63;5.70;;;17.80;99.90;;;;;;5046785;28;20079;-79
2021/06/10 06:31:20;;;;;;;7.95;5.32;;;17.80;99.90;;;;;;5047999;28;20404;-78
2021/06/10 06:33:46;;;;;;;7.53;4.85;;;17.80;99.90;;;;;;5046500;28;20104;-79
2021/06/10 06:36:11;;;;;;;9.57;5.90;;;17.90;99.90;;;;;;5052440;28;20104;-75
2021/06/10 06:38:37;;;;;;;11.70;6.50;;;17.90;99.90;;;;;;5050994;28;20320;-75
2021/06/10 06:41:03;;;;;;;8.40;5.87;;;18.00;99.90;;;;;;5050703;28;20024;-78
2021/06/10 06:43:30;;;;;;;9.93;6.30;;;18.00;99.90;;;;;;5048819;28;20049;-75
2021/06/10 06:45:57;;;;;;;11.30;6.18;;;18.10;99.90;;;;;;5059954;28;20302;-78
2021/06/10 06:48:23;;;;;;;10.27;5.80;;;18.10;99.90;;;;;;5050941;28;20025;-79
2021/06/10 06:50:48;;;;;;;9.85;5.85;;;18.10;99.90;;;;;;5053552;28;20024;-76
2021/06/10 06:53:14;;;;;;;9.17;6.37;;;18.20;99.90;;;;;;5067398;28;20408;-76
2021/06/10 06:55:40;;;;;;;8.67;5.43;;;18.30;99.90;;;;;;5055904;28;20036;-78
2021/06/10 06:58:06;;;;;;;8.47;5.73;;;18.30;99.90;;;;;;5059803;28;20135;-75
2021/06/10 07:00:31;;;;;;;10.40;5.10;;;18.40;99.90;;;;;;5045387;28;20035;-75
2021/06/10 07:02:57;;;;;;;13.83;5.30;;;18.50;99.90;;;;;;5054139;28;20598;-74
2021/06/10 07:05:23;;;;;;;9.13;5.37;;;18.50;99.90;;;;;;5048723;28;20037;-77
2021/06/10 07:07:48;;;;;;;9.27;6.20;;;18.60;99.90;;;;;;5053513;28;20082;-74
2021/06/10 07:10:15;;;;;;;8.63;5.40;;;18.80;99.90;;;;;;5051574;28;20099;-74
2021/06/10 07:12:40;;;;;;;9.73;5.63;;;18.80;99.90;;;;;;5050665;28;20057;-74
2021/06/10 07:15:06;;;;;;;11.20;5.50;;;18.90;99.90;;;;;;5052143;28;20037;-74
2021/06/10 07:17:32;;;;;;;9.80;5.78;;;19.00;99.90;;;;;;5052152;28;20043;-74
2021/06/10 07:20:00;;;;;;;8.97;5.40;;;19.10;99.90;;;;;;5050456;28;20116;-74
2021/06/10 07:22:30;;;;;;;11.85;5.07;;;19.20;99.90;;;;;;5045130;28;20027;-74
2021/06/10 07:24:55;;;;;;;8.55;5.32;;;19.40;99.90;;;;;;5048473;28;20419;-74
2021/06/10 07:27:21;;;;;;;7.83;5.00;;;19.50;99.90;;;;;;5062107;28;20029;-74
2021/06/10 07:29:47;;;;;;;7.70;4.33;;;19.60;99.90;;;;;;5056068;28;20029;-74
2021/06/10 07:32:13;;;;;;;8.40;4.87;;;19.70;99.90;;;;;;5050744;28;20025;-74
2021/06/10 07:34:39;;;;;;;8.70;4.77;;;19.80;99.90;;;;;;5053678;28;20022;-74
2021/06/10 07:37:06;;;;;;;9.33;4.47;;;20.00;99.90;;;;;;5059330;28;20104;-74
2021/06/10 07:39:33;;;;;;;5.78;4.57;;;20.20;99.90;;;;;;5044798;28;20756;-74
2021/06/10 07:41:59;;;;;;;;;;;20.30;99.90;;;;;;5062944;28;20328;-74
2021/06/10 07:44:26;;;;;;;7.68;4.32;;;20.50;99.90;;;;;;5051764;28;19919;-74
2021/06/10 07:46:52;;;;;;;8.80;4.70;;;20.60;99.90;;;;;;5052594;28;20064;-75
2021/06/10 07:49:18;;;;;;;8.73;4.80;;;20.80;99.90;;;;;;5053023;28;20053;-74
2021/06/10 07:51:43;;;;;;;7.90;4.80;;;21.00;99.90;;;;;;5053078;28;20250;-74
2021/06/10 07:54:09;;;;;;;5.27;4.00;;;21.20;99.90;;;;;;5055120;28;20051;-74
2021/06/10 07:56:35;;;;;;;6.27;4.40;;;21.30;99.90;;;;;;5052202;28;20031;-74
2021/06/10 07:59:01;;;;;;;7.28;4.32;;;21.50;99.90;;;;;;5052479;28;20074;-75
2021/06/10 08:01:27;;;;;;;7.80;4.20;;;21.60;99.90;;;;;;5054239;28;20036;-75
2021/06/10 08:03:53;;;;;;;7.27;4.03;;;21.70;99.90;;;;;;5049771;28;20039;-74
2021/06/10 08:06:20;;;;;;;8.77;5.23;;;21.90;99.90;;;;;;5054442;28;20025;-73
2021/06/10 08:08:46;;;;;;;7.18;3.92;;;22.00;99.90;;;;;;5051937;28;20025;-74
2021/06/10 08:11:12;;;;;;;6.80;3.95;;;22.10;99.90;;;;;;5052925;28;20036;-74
2021/06/10 08:13:37;;;;;;;5.43;3.20;;;22.20;99.90;;;;;;5051367;28;20044;-82
2021/06/10 08:16:04;;;;;;;6.87;4.30;;;22.30;99.90;;;;;;5052900;28;20104;-72
2021/06/10 08:18:29;;;;;;;4.57;3.60;;;22.50;99.90;;;;;;5052995;28;20052;-74
2021/06/10 08:20:57;;;;;;;6.28;3.80;;;22.60;99.90;;;;;;5051918;28;20490;-74
2021/06/10 08:23:23;;;;;;;8.35;3.83;;;22.80;99.90;;;;;;5035944;28;20043;-73
2021/06/10 08:25:49;;;;;;;;;;;22.90;99.90;;;;;;5046798;28;20167;-73
2021/06/10 08:28:15;;;;;;;6.95;4.22;;;23.00;99.90;;;;;;5057948;28;20038;-73
2021/06/10 08:30:42;;;;;;;6.00;3.70;;;23.10;99.90;;;;;;5054403;28;20044;-73
2021/06/10 08:33:08;;;;;;;6.50;3.88;;;23.20;99.90;;;;;;5052284;28;20045;-73
2021/06/10 08:35:35;;;;;;;6.85;3.65;;;23.40;99.90;;;;;;5054617;28;20068;-77
2021/06/10 08:38:05;;;;;;;5.13;3.58;;;23.50;99.90;;;;;;5040741;28;20096;-73
2021/06/10 08:40:31;;;;;;;7.22;2.83;;;23.70;99.90;;;;;;5055322;28;20036;-73
2021/06/10 08:42:57;;;;;;;5.80;2.90;;;23.70;99.90;;;;;;5067886;28;20067;-72
2021/06/10 08:45:27;;;;;;;5.15;3.22;;;23.80;99.90;;;;;;5045275;28;20719;-72
2021/06/10 08:47:53;;;;;;;4.90;2.50;;;23.90;99.00;;;;;;5047651;28;20079;-74
2021/06/10 08:50:24;;;;;;;6.00;2.97;;;23.90;96.60;;;;;;5055678;28;20363;-73
2021/06/10 08:52:51;;;;;;;5.25;3.58;;;24.00;97.80;;;;;;5050918;28;20025;-73
2021/06/10 08:55:18;;;;;;;4.55;2.03;;;24.20;97.60;;;;;;5052788;28;20028;-79
2021/06/10 08:57:44;;;;;;;6.07;2.75;;;24.30;95.00;;;;;;5051921;28;20025;-74
2021/06/10 09:00:11;;;;;;;;;;;24.40;95.90;;;;;;5051923;28;20419;-73
2021/06/10 09:02:36;;;;;;;5.57;2.97;;;24.60;96.10;;;;;;5053043;28;20219;-74
2021/06/10 09:05:08;;;;;;;4.57;2.47;;;24.70;96.60;;;;;;5049018;28;20036;-76
2021/06/10 09:07:39;;;;;;;3.13;2.20;;;24.90;96.40;;;;;;5050957;28;20036;-79
2021/06/10 09:10:07;;;;;;;3.60;2.80;;;25.00;93.90;;;;;;5050160;28;20028;-78
2021/06/10 09:12:57;;;;;;;4.80;2.13;;;25.10;93.60;;;;;;5054035;28;20438;-77
2021/06/10 09:15:29;;;;;;;5.93;2.60;;;25.30;92.80;;;;;;5047331;28;20454;-74
2021/06/10 09:17:56;;;;;;;4.45;2.95;;;25.50;92.60;;;;;;5045737;28;20481;-78
2021/06/10 09:20:22;;;;;;;6.32;3.67;;;25.60;92.70;;;;;;5058279;28;20037;-75
2021/06/10 09:22:50;;;;;;;8.43;3.20;;;25.50;92.00;;;;;;5047860;28;20024;-78
2021/06/10 09:25:19;;;;;;;7.10;3.33;;;25.60;92.30;;;;;;5050851;28;20083;-78
2021/06/10 09:28:00;;;;;;;5.32;2.40;;;25.70;93.50;;;;;;5045844;28;20017;-77
2021/06/10 09:30:32;;;;;;;5.10;2.67;;;25.80;90.50;;;;;;5045628;28;20104;-78
2021/06/10 09:33:00;;;;;;;4.15;2.50;;;25.80;90.70;;;;;;5046648;28;20511;-80
2021/06/10 09:35:31;;;;;;;3.90;2.15;;;26.00;90.20;;;;;;5050364;28;20404;-77
2021/06/10 09:37:59;;;;;;;3.20;2.00;;;26.00;87.00;;;;;;5058324;28;20021;-79
2021/06/10 09:40:25;;;;;;;2.63;1.88;;;26.20;86.70;;;;;;5060920;28;20037;-80
2021/06/10 09:42:51;;;;;;;2.75;1.85;;;26.20;84.20;;;;;;5049810;28;20103;-77
2021/06/10 09:45:19;;;;;;;2.15;1.95;;;26.20;86.50;;;;;;5051760;28;20064;-77
2021/06/10 09:47:49;;;;;;;2.10;1.70;;;26.20;83.20;;;;;;5052255;28;20044;-79
2021/06/10 09:50:19;;;;;;;2.70;1.95;;;26.10;80.90;;;;;;5051622;28;20865;-80
2021/06/10 09:52:57;;;;;;;3.65;2.00;;;26.20;80.60;;;;;;5052148;28;20025;-80
2021/06/10 09:55:58;;;;;;;2.80;2.08;;;26.10;79.80;;;;;;5043262;28;20029;-78
2021/06/10 09:58:35;;;;;;;4.35;2.38;;;26.10;80.30;;;;;;5052530;28;20112;-74
2021/06/10 10:01:03;;;;;;;3.53;1.88;;;26.20;80.50;;;;;;5041796;28;20025;-77
2021/06/10 10:03:32;;;;;;;3.22;1.88;;;26.30;77.90;;;;;;5037179;28;20089;-79
2021/06/10 10:06:06;;;;;;;5.68;2.38;;;26.20;74.40;;;;;;5058883;28;20028;-78
2021/06/10 10:08:33;;;;;;;3.88;2.15;;;26.10;76.60;;;;;;5056715;28;20031;-73
2021/06/10 10:11:01;;;;;;;2.92;2.08;;;26.20;74.60;;;;;;5050216;28;20025;-79
2021/06/10 10:13:28;;;;;;;3.78;2.55;;;26.20;77.00;;;;;;5050901;28;20366;-76
2021/06/10 10:15:58;;;;;;;2.63;2.10;;;26.20;82.60;;;;;;5056810;28;20024;-73
2021/06/10 10:18:24;;;;;;;3.67;2.22;;;26.30;73.70;;;;;;5059287;28;20075;-75
2021/06/10 10:20:50;;;;;;;2.20;1.30;;;26.30;73.80;;;;;;5045808;28;20018;-75
2021/06/10 10:23:16;;;;;;;3.22;1.77;;;26.30;77.80;;;;;;5033689;28;20030;-78
2021/06/10 10:25:42;;;;;;;2.60;1.98;;;26.40;78.20;;;;;;5057610;28;20033;-78
2021/06/10 10:28:11;;;;;;;4.65;2.60;;;26.60;79.40;;;;;;5035474;28;20117;-77
2021/06/10 10:30:38;;;;;;;3.00;1.90;;;26.80;79.70;;;;;;5035574;28;20025;-76
2021/06/10 10:33:22;;;;;;;3.10;2.30;;;27.00;79.80;;;;;;5055761;28;20014;-78
2021/06/10 10:35:56;;;;;;;2.38;1.90;;;27.20;75.50;;;;;;5050603;28;20056;-77
2021/06/10 10:38:32;;;;;;;3.85;2.10;;;27.30;76.60;;;;;;5060553;28;20079;-78
2021/06/10 10:41:09;;;;;;;3.67;2.40;;;27.30;76.50;;;;;;5056676;28;20325;-77
2021/06/10 10:43:35;;;;;;;2.40;2.10;;;27.50;77.60;;;;;;5054151;28;20444;-75
2021/06/10 10:46:10;;;;;;;2.72;1.55;;;27.60;73.50;;;;;;5056157;28;20118;-79
2021/06/10 10:48:47;;;;;;;4.03;2.20;;;27.80;74.10;;;;;;5059998;28;20086;-79
2021/06/10 10:51:36;;;;;;;2.70;1.90;;;28.00;72.70;;;;;;5058194;28;20332;-77
2021/06/10 10:54:07;;;;;;;3.83;2.33;;;28.20;74.60;;;;;;5066253;28;20052;-77
2021/06/10 10:56:42;;;;;;;3.55;1.92;;;28.30;73.10;;;;;;5051880;28;20036;-78
2021/06/10 10:59:09;;;;;;;5.17;2.30;;;28.50;72.70;;;;;;5047251;28;20155;-77
2021/06/10 11:01:35;;;;;;;3.17;1.67;;;28.60;72.10;;;;;;5043099;28;20027;-78
2021/06/10 11:04:00;;;;;;;2.70;1.65;;;28.70;70.50;;;;;;5048127;28;20048;-77
2021/06/10 11:06:28;;;;;;;3.45;1.88;;;29.00;69.50;;;;;;5048576;28;20098;-78
2021/06/10 11:09:14;;;;;;;8.20;2.35;;;29.20;68.50;;;;;;5046646;28;20014;-78
2021/06/10 11:11:57;;;;;;;3.35;1.92;;;29.50;69.00;;;;;;5048382;28;20319;-78
2021/06/10 11:14:35;;;;;;;1.67;1.58;;;29.40;66.30;;;;;;5040435;28;20038;-79
2021/06/10 11:17:17;;;;;;;4.47;1.60;;;29.50;68.40;;;;;;5065962;28;20291;-78
2021/06/10 11:20:01;;;;;;;2.83;1.40;;;29.60;64.50;;;;;;5066800;28;20033;-78
2021/06/10 11:22:44;;;;;;;2.30;1.30;;;29.80;63.70;;;;;;5049099;28;20424;-79
2021/06/10 11:25:10;;;;;;;3.45;1.40;;;30.10;62.10;;;;;;5060794;28;20412;-76
2021/06/10 11:27:42;;;;;;;4.78;1.70;;;30.10;63.20;;;;;;5050173;28;20095;-79
2021/06/10 11:30:21;;;;;;;5.88;2.20;;;29.90;64.50;;;;;;5050060;28;20064;-75
2021/06/10 11:33:16;;;;;;;4.32;2.78;;;29.80;62.40;;;;;;5069633;28;20174;-74
2021/06/10 11:36:03;;;;;;;12.82;3.63;;;29.80;64.40;;;;;;5058976;28;20031;-75
2021/06/10 11:38:33;;;;;;;11.05;2.78;;;29.70;63.40;;;;;;5054712;28;20068;-77
2021/06/10 11:41:07;;;;;;;3.28;2.00;;;29.70;64.50;;;;;;5040495;28;20412;-75
2021/06/10 11:43:35;;;;;;;5.10;1.85;;;29.70;64.20;;;;;;5065325;28;20060;-78
2021/06/10 11:46:05;;;;;;;2.72;1.55;;;29.70;65.20;;;;;;5055301;28;20449;-78
2021/06/10 11:48:51;;;;;;;3.35;2.35;;;29.70;63.90;;;;;;5067233;28;20345;-78
2021/06/10 11:51:30;;;;;;;4.88;2.42;;;29.80;63.70;;;;;;5046060;28;20060;-78
2021/06/10 11:54:04;;;;;;;4.03;2.03;;;29.90;63.30;;;;;;5045512;28;20334;-74
2021/06/10 11:56:31;;;;;;;3.10;2.42;;;29.70;63.10;;;;;;5046121;28;20017;-78
2021/06/10 11:59:02;;;;;;;;;;;29.50;65.30;;;;;;5060623;28;20029;-79
2021/06/10 12:01:29;;;;;;;2.15;1.95;;;29.30;67.30;;;;;;5054088;28;19943;-78
2021/06/10 12:03:55;;;;;;;3.13;2.35;;;29.20;66.00;;;;;;5056801;28;20045;-78
2021/06/10 12:06:20;;;;;;;4.57;2.22;;;29.00;65.50;;;;;;5071314;28;20086;-77
2021/06/10 12:08:48;;;;;;;2.80;2.08;;;29.10;66.30;;;;;;5037034;28;20029;-79
2021/06/10 12:11:16;;;;;;;4.47;2.72;;;29.00;66.90;;;;;;5040032;28;20036;-79
2021/06/10 12:13:52;;;;;;;8.85;3.05;;;28.90;64.30;;;;;;5047377;28;20360;-75
2021/06/10 12:16:19;;;;;;;4.43;3.13;;;28.50;65.40;;;;;;5054010;28;20055;-79
2021/06/10 12:18:47;;;;;;;6.43;2.17;;;28.40;65.10;;;;;;5054093;28;20033;-77
2021/06/10 12:21:25;;;;;;;9.85;2.63;;;28.30;66.70;;;;;;5040363;28;20041;-78
2021/06/10 12:23:55;;;;;;;4.45;3.55;;;28.40;68.30;;;;;;5048947;28;20033;-75
2021/06/10 12:26:25;;;;;;;4.80;3.00;;;28.40;67.20;;;;;;5064632;28;20033;-78
2021/06/10 12:28:53;;;;;;;6.65;3.42;;;28.40;67.80;;;;;;5044906;28;20308;-78
2021/06/10 12:31:26;;;;;;;4.07;2.72;;;28.50;68.90;;;;;;5063994;28;20025;-79
2021/06/10 12:33:54;;;;;;;5.95;2.65;;;28.40;66.00;;;;;;5042049;28;20073;-76
2021/06/10 12:36:35;;;;;;;6.97;3.00;;;28.40;67.60;;;;;;5060328;28;20093;-78
2021/06/10 12:39:24;;;;;;;5.13;2.78;;;28.40;70.10;;;;;;5057623;28;20037;-79
2021/06/10 12:41:51;;;;;;;6.28;2.90;;;28.40;70.10;;;;;;5046456;28;20318;-78
2021/06/10 12:44:23;;;;;;;4.35;2.58;;;28.60;70.10;;;;;;5063483;28;20021;-77
2021/06/10 12:46:58;;;;;;;5.13;2.85;;;28.80;69.00;;;;;;5043596;28;20446;-79
2021/06/10 12:49:37;;;;;;;13.98;4.10;;;28.80;67.30;;;;;;5060141;28;20484;-78
2021/06/10 12:52:19;;;;;;;6.07;3.08;;;28.90;67.10;;;;;;5064142;28;20017;-77
2021/06/10 12:54:46;;;;;;;6.32;2.97;;;28.90;67.80;;;;;;5052235;28;20017;-77
2021/06/10 12:57:19;;;;;;;4.95;3.40;;;28.90;70.10;;;;;;5046601;28;20032;-78